createdAt,value
2023-05-21T00:01:45.636Z,15.19
2023-05-21T00:04:15.940Z,15.18
2023-05-21T00:06:43.662Z,15.31
2023-05-21T00:09:13.200Z,15.21
2023-05-21T00:11:40.939Z,15.35
2023-05-21T00:14:08.870Z,15.31
2023-05-21T00:16:38.375Z,15.15
2023-05-21T00:19:06.190Z,15.12
2023-05-21T00:21:34.733Z,15.19
2023-05-21T00:24:02.486Z,15.15
2023-05-21T00:26:30.599Z,15.08
2023-05-21T00:28:58.457Z,15.13
2023-05-21T00:31:26.767Z,15.19
2023-05-21T00:33:55.884Z,15.09
2023-05-21T00:36:25.442Z,15.06
2023-05-21T00:38:53.529Z,14.92
2023-05-21T00:41:23.344Z,15.32
2023-05-21T00:43:51.033Z,15.41
2023-05-21T00:46:21.150Z,15.33
2023-05-21T00:48:50.433Z,15.27
2023-05-21T00:51:22.197Z,15.29
2023-05-21T00:53:52.462Z,15.37
2023-05-21T00:56:22.020Z,15.31
2023-05-21T00:58:51.722Z,15.28
2023-05-21T01:01:19.777Z,15.23
2023-05-21T01:03:48.548Z,15.19
2023-05-21T01:06:17.028Z,15.39
2023-05-21T01:08:46.792Z,15.47
2023-05-21T01:11:15.406Z,15.50
2023-05-21T01:13:44.836Z,15.66
2023-05-21T01:16:13.512Z,15.54
2023-05-21T01:18:44.074Z,15.56
2023-05-21T01:21:13.615Z,15.56
2023-05-21T01:24:05.824Z,15.56
2023-05-21T01:26:38.361Z,15.46
2023-05-21T01:29:07.766Z,15.46
2023-05-21T01:31:44.967Z,15.31
2023-05-21T01:34:17.632Z,15.51
2023-05-21T01:36:54.503Z,15.50
2023-05-21T01:39:29.052Z,15.30
2023-05-21T01:41:57.904Z,15.49
2023-05-21T01:44:27.690Z,15.55
2023-05-21T01:46:58.423Z,15.49
2023-05-21T01:49:26.885Z,15.49
2023-05-21T01:51:55.148Z,15.47
2023-05-21T01:54:24.605Z,15.37
2023-05-21T01:56:52.593Z,15.40
2023-05-21T01:59:21.262Z,15.40
2023-05-21T02:01:49.126Z,15.24
2023-05-21T02:04:16.980Z,15.25
2023-05-21T02:06:44.764Z,15.23
2023-05-21T02:09:12.751Z,15.20
2023-05-21T02:11:41.805Z,15.07
2023-05-21T02:14:10.802Z,15.02
2023-05-21T02:16:39.063Z,15.05
2023-05-21T02:19:07.474Z,14.96
2023-05-21T02:21:35.200Z,14.87
2023-05-21T02:24:03.133Z,14.81
2023-05-21T02:26:31.445Z,14.82
2023-05-21T02:29:01.312Z,14.77
2023-05-21T02:31:29.929Z,14.72
2023-05-21T02:33:58.049Z,14.76
2023-05-21T02:36:28.716Z,14.66
2023-05-21T02:38:58.044Z,14.60
2023-05-21T02:41:26.881Z,14.64
2023-05-21T02:43:55.242Z,14.70
2023-05-21T02:46:24.531Z,14.65
2023-05-21T02:48:53.596Z,14.55
2023-05-21T02:51:21.447Z,14.53
2023-05-21T02:53:49.741Z,14.49
2023-05-21T02:56:17.458Z,14.43
2023-05-21T02:58:45.117Z,14.45
2023-05-21T03:01:13.331Z,14.41
2023-05-21T03:03:42.403Z,14.39
2023-05-21T03:06:10.993Z,14.32
2023-05-21T03:08:39.457Z,14.34
2023-05-21T03:11:07.501Z,14.40
2023-05-21T03:13:35.642Z,14.31
2023-05-21T03:16:03.333Z,14.33
2023-05-21T03:18:32.780Z,14.30
2023-05-21T03:21:01.806Z,14.24
2023-05-21T03:23:29.714Z,14.24
2023-05-21T03:25:58.116Z,14.27
2023-05-21T03:28:25.874Z,14.22
2023-05-21T03:30:54.023Z,14.24
2023-05-21T03:33:41.307Z,14.38
2023-05-21T03:36:22.108Z,14.25
2023-05-21T03:38:49.847Z,14.27
2023-05-21T03:41:17.608Z,14.24
2023-05-21T03:43:50.179Z,14.18
2023-05-21T03:46:19.226Z,14.19
2023-05-21T03:49:06.076Z,14.13
2023-05-21T03:51:38.280Z,14.14
2023-05-21T03:54:08.044Z,14.11
2023-05-21T03:56:37.984Z,14.09
2023-05-21T03:59:06.273Z,14.11
2023-05-21T04:01:34.866Z,14.13
2023-05-21T04:04:03.943Z,14.13
2023-05-21T04:06:32.002Z,14.17
2023-05-21T04:09:01.318Z,14.09
2023-05-21T04:11:29.108Z,14.06
2023-05-21T04:13:56.906Z,14.02
2023-05-21T04:16:24.728Z,14.00
2023-05-21T04:18:55.527Z,13.90
2023-05-21T04:21:24.954Z,13.86
2023-05-21T04:23:54.164Z,13.99
2023-05-21T04:26:34.297Z,13.86
2023-05-21T04:29:04.121Z,13.92
2023-05-21T04:31:32.964Z,13.87
2023-05-21T04:34:03.901Z,13.92
2023-05-21T04:36:33.769Z,13.94
2023-05-21T04:39:02.066Z,14.06
2023-05-21T04:41:31.460Z,14.14
2023-05-21T04:44:01.173Z,14.19
2023-05-21T04:46:32.524Z,14.16
2023-05-21T04:49:02.778Z,14.27
2023-05-21T04:51:30.998Z,14.21
2023-05-21T04:54:00.375Z,14.23
2023-05-21T04:56:28.170Z,14.30
2023-05-21T04:58:59.088Z,14.37
2023-05-21T05:01:29.323Z,14.35
2023-05-21T05:03:57.471Z,14.49
2023-05-21T05:06:26.698Z,14.50
2023-05-21T05:08:56.316Z,14.66
2023-05-21T05:11:24.061Z,14.74
2023-05-21T05:13:53.112Z,14.73
2023-05-21T05:16:25.687Z,14.71
2023-05-21T05:18:54.145Z,14.79
2023-05-21T05:21:24.035Z,14.77
2023-05-21T05:23:52.051Z,14.91
2023-05-21T05:26:23.694Z,14.87
2023-05-21T05:28:51.481Z,14.99
2023-05-21T05:31:20.076Z,15.06
2023-05-21T05:33:49.477Z,15.13
2023-05-21T05:36:17.836Z,15.26
2023-05-21T05:38:45.627Z,15.42
2023-05-21T05:41:13.510Z,15.49
2023-05-21T05:43:42.000Z,15.61
2023-05-21T05:46:10.570Z,15.68
2023-05-21T05:48:38.264Z,15.76
2023-05-21T05:51:07.807Z,15.76
2023-05-21T05:53:36.367Z,15.87
2023-05-21T05:56:04.695Z,15.98
2023-05-21T05:58:32.419Z,15.96
2023-05-21T06:01:10.051Z,16.07
2023-05-21T06:03:37.806Z,16.07
2023-05-21T06:06:14.751Z,15.88
2023-05-21T06:08:42.628Z,15.88
2023-05-21T06:11:11.179Z,16.01
2023-05-21T06:13:38.949Z,16.14
2023-05-21T06:16:10.204Z,15.92
2023-05-21T06:18:38.878Z,15.81
2023-05-21T06:21:07.000Z,15.85
2023-05-21T06:23:37.748Z,15.85
2023-05-21T06:26:06.461Z,15.82
2023-05-21T06:28:34.772Z,15.80
2023-05-21T06:31:02.966Z,15.90
2023-05-21T06:33:33.255Z,15.71
2023-05-21T06:36:01.904Z,15.89
2023-05-21T06:38:29.681Z,15.92
2023-05-21T06:41:00.000Z,15.87
2023-05-21T06:44:03.159Z,15.91
2023-05-21T06:46:49.543Z,16.19
2023-05-21T06:49:19.889Z,16.24
2023-05-21T06:51:47.848Z,16.57
2023-05-21T06:54:15.573Z,16.66
2023-05-21T06:56:45.022Z,16.75
2023-05-21T06:59:12.862Z,17.25
2023-05-21T07:01:42.887Z,18.29
2023-05-21T07:06:40.241Z,18.65
2023-05-21T07:09:08.720Z,19.00
2023-05-21T07:11:37.410Z,19.17
2023-05-21T07:14:09.644Z,19.61
2023-05-21T07:16:39.347Z,20.00
2023-05-21T07:19:08.316Z,20.20
2023-05-21T07:21:36.905Z,20.83
2023-05-21T07:24:07.240Z,20.71
2023-05-21T07:26:38.635Z,20.98
2023-05-21T07:29:08.042Z,20.81
2023-05-21T07:31:36.980Z,20.75
2023-05-21T07:34:04.828Z,20.87
2023-05-21T07:36:35.421Z,21.49
2023-05-21T07:39:03.893Z,20.89
2023-05-21T07:41:32.979Z,21.18
2023-05-21T07:44:03.512Z,21.07
2023-05-21T07:46:35.400Z,21.43
2023-05-21T07:49:04.561Z,21.02
2023-05-21T07:51:32.708Z,20.84
2023-05-21T07:54:00.473Z,21.36
2023-05-21T07:56:33.480Z,20.94
2023-05-21T07:59:01.749Z,21.38
2023-05-21T08:01:30.773Z,21.22
2023-05-21T08:04:05.887Z,21.35
2023-05-21T08:06:37.482Z,21.05
2023-05-21T08:09:06.471Z,21.11
2023-05-21T08:11:34.416Z,20.92
2023-05-21T08:14:02.935Z,21.42
2023-05-21T08:16:31.497Z,21.22
2023-05-21T08:19:01.287Z,20.99
2023-05-21T08:21:29.144Z,21.09
2023-05-21T08:23:57.597Z,21.24
2023-05-21T08:26:26.184Z,20.91
2023-05-21T08:28:54.209Z,20.90
2023-05-21T08:31:22.312Z,20.72
2023-05-21T08:33:52.868Z,20.81
2023-05-21T08:36:27.524Z,20.65
2023-05-21T08:39:01.495Z,20.71
2023-05-21T08:41:39.681Z,20.97
2023-05-21T08:44:12.253Z,21.42
2023-05-21T08:46:42.692Z,21.51
2023-05-21T08:49:14.055Z,21.37
2023-05-21T08:51:44.416Z,21.67
2023-05-21T08:54:14.059Z,21.70
2023-05-21T08:56:46.888Z,21.65
2023-05-21T08:59:16.341Z,21.95
2023-05-21T09:01:46.922Z,22.10
2023-05-21T09:04:25.237Z,21.83
2023-05-21T09:06:57.818Z,21.95
2023-05-21T09:09:53.916Z,21.95
2023-05-21T09:12:21.670Z,22.21
2023-05-21T09:14:51.133Z,21.91
2023-05-21T09:17:21.923Z,22.15
2023-05-21T09:20:09.742Z,21.93
2023-05-21T09:22:41.607Z,21.98
2023-05-21T09:25:12.000Z,21.82
2023-05-21T09:27:40.405Z,22.31
2023-05-21T09:30:11.941Z,22.57
2023-05-21T09:32:40.273Z,22.88
2023-05-21T09:35:10.119Z,23.26
2023-05-21T09:37:40.515Z,23.86
2023-05-21T09:40:12.481Z,23.97
2023-05-21T09:42:41.077Z,24.06
2023-05-21T09:45:10.427Z,24.11
2023-05-21T09:47:43.533Z,24.64
2023-05-21T09:50:12.513Z,24.89
2023-05-21T09:52:42.344Z,24.49
2023-05-21T09:55:13.164Z,24.51
2023-05-21T09:57:44.831Z,24.87
2023-05-21T10:00:20.024Z,25.03
2023-05-21T10:02:49.642Z,24.84
2023-05-21T10:05:18.448Z,24.72
2023-05-21T10:07:51.790Z,24.49
2023-05-21T10:10:21.441Z,24.77
2023-05-21T10:12:53.073Z,24.80
2023-05-21T10:15:24.862Z,24.87
2023-05-21T10:17:53.472Z,25.37
2023-05-21T10:20:21.651Z,25.17
2023-05-21T10:22:52.420Z,25.09
2023-05-21T10:25:21.184Z,25.30
2023-05-21T10:27:50.001Z,25.49
2023-05-21T10:30:19.413Z,25.31
2023-05-21T10:32:49.068Z,25.53
2023-05-21T10:35:17.854Z,25.63
2023-05-21T10:37:46.476Z,25.55
2023-05-21T10:40:15.694Z,25.69
2023-05-21T10:43:08.730Z,25.76
2023-05-21T10:45:48.554Z,25.66
2023-05-21T10:48:36.544Z,25.72
2023-05-21T10:51:16.036Z,25.42
2023-05-21T10:53:58.899Z,25.59
2023-05-21T10:56:32.679Z,25.67
2023-05-21T10:59:15.183Z,26.09
2023-05-21T11:01:43.515Z,25.97
2023-05-21T11:04:14.491Z,25.94
2023-05-21T11:06:49.533Z,26.22
2023-05-21T11:09:17.520Z,26.25
2023-05-21T11:11:48.387Z,26.05
2023-05-21T11:14:35.183Z,26.09
2023-05-21T11:17:04.969Z,26.13
2023-05-21T11:19:43.853Z,26.19
2023-05-21T11:22:23.153Z,26.59
2023-05-21T11:24:52.062Z,26.81
2023-05-21T11:27:35.527Z,26.91
2023-05-21T11:30:07.939Z,26.94
2023-05-21T11:32:39.399Z,26.72
2023-05-21T11:35:08.732Z,26.61
2023-05-21T11:37:40.585Z,26.66
2023-05-21T11:40:26.611Z,26.59
2023-05-21T11:42:57.532Z,26.73
2023-05-21T11:45:30.744Z,27.09
2023-05-21T11:47:59.132Z,26.91
2023-05-21T11:50:27.275Z,27.16
2023-05-21T11:52:55.978Z,26.94
2023-05-21T11:55:26.127Z,27.28
2023-05-21T11:57:56.453Z,27.52
2023-05-21T12:00:24.845Z,27.35
2023-05-21T12:02:55.318Z,27.27
2023-05-21T12:05:23.900Z,27.44
2023-05-21T12:07:51.772Z,27.20
2023-05-21T12:10:23.644Z,27.19
2023-05-21T12:12:55.823Z,27.34
2023-05-21T12:15:27.966Z,27.62
2023-05-21T12:17:56.884Z,27.77
2023-05-21T12:20:28.597Z,27.80
2023-05-21T12:22:58.748Z,27.79
2023-05-21T12:25:27.604Z,27.66
2023-05-21T12:27:58.223Z,27.55
2023-05-21T12:30:28.178Z,27.90
2023-05-21T12:33:02.194Z,27.67
2023-05-21T12:35:31.699Z,27.30
2023-05-21T12:38:01.986Z,27.29
2023-05-21T12:40:38.702Z,27.39
2023-05-21T12:43:07.850Z,27.26
2023-05-21T12:45:39.624Z,27.37
2023-05-21T12:48:07.806Z,27.42
2023-05-21T12:50:36.466Z,27.42
2023-05-21T12:53:05.604Z,27.43
2023-05-21T12:55:33.344Z,27.42
2023-05-21T12:58:04.341Z,27.70
2023-05-21T13:00:33.272Z,27.99
2023-05-21T13:03:06.069Z,28.01
2023-05-21T13:05:34.341Z,27.68
2023-05-21T13:08:03.017Z,27.63
2023-05-21T13:10:30.843Z,27.65
2023-05-21T13:12:59.583Z,27.94
2023-05-21T13:15:27.658Z,27.85
2023-05-21T13:17:56.963Z,27.71
2023-05-21T13:20:27.849Z,27.45
2023-05-21T13:22:55.942Z,27.57
2023-05-21T13:25:28.825Z,27.78
2023-05-21T13:27:58.294Z,27.66
2023-05-21T13:30:26.196Z,27.89
2023-05-21T13:32:54.320Z,27.68
2023-05-21T13:35:22.821Z,27.21
2023-05-21T13:37:52.086Z,27.41
2023-05-21T13:40:20.280Z,27.77
2023-05-21T13:42:49.536Z,27.81
2023-05-21T13:45:19.387Z,27.94
2023-05-21T13:47:48.285Z,28.36
2023-05-21T13:50:17.444Z,28.39
2023-05-21T13:52:45.334Z,28.32
2023-05-21T13:55:15.790Z,27.67
2023-05-21T13:57:44.020Z,27.89
2023-05-21T14:00:14.244Z,27.77
2023-05-21T14:02:42.986Z,27.86
2023-05-21T14:05:12.279Z,27.81
2023-05-21T14:07:40.842Z,28.19
2023-05-21T14:10:10.014Z,28.30
2023-05-21T14:12:39.124Z,28.17
2023-05-21T14:15:08.418Z,28.44
2023-05-21T14:17:36.435Z,28.23
2023-05-21T14:20:04.339Z,28.36
2023-05-21T14:22:32.557Z,28.11
2023-05-21T14:25:00.228Z,28.22
2023-05-21T14:27:28.764Z,27.87
2023-05-21T14:29:57.805Z,27.97
2023-05-21T14:32:25.995Z,28.50
2023-05-21T14:34:53.752Z,28.47
2023-05-21T14:37:22.076Z,28.65
2023-05-21T14:39:49.774Z,28.80
2023-05-21T14:42:17.819Z,28.82
2023-05-21T14:44:46.010Z,28.70
2023-05-21T14:47:15.183Z,28.29
2023-05-21T14:49:43.319Z,28.39
2023-05-21T14:52:11.713Z,28.56
2023-05-21T14:54:39.533Z,28.63
2023-05-21T14:57:07.550Z,28.10
2023-05-21T14:59:35.215Z,28.25
2023-05-21T15:02:03.485Z,28.29
2023-05-21T15:04:32.592Z,28.08
2023-05-21T15:07:00.447Z,27.48
2023-05-21T15:09:28.445Z,27.86
2023-05-21T15:11:56.190Z,27.58
2023-05-21T15:14:24.383Z,27.44
2023-05-21T15:16:52.174Z,27.59
2023-05-21T15:19:20.751Z,27.58
2023-05-21T15:21:51.675Z,27.13
2023-05-21T15:24:19.473Z,27.11
2023-05-21T15:26:49.335Z,27.00
2023-05-21T15:29:17.046Z,26.88
2023-05-21T15:31:45.105Z,26.71
2023-05-21T15:34:13.661Z,26.81
2023-05-21T15:36:41.992Z,26.84
2023-05-21T15:39:11.137Z,26.80
2023-05-21T15:41:38.847Z,26.89
2023-05-21T15:44:06.964Z,26.78
2023-05-21T15:46:34.765Z,26.81
2023-05-21T15:49:02.807Z,26.51
2023-05-21T15:51:30.649Z,26.56
2023-05-21T15:53:58.659Z,26.49
2023-05-21T15:56:27.715Z,26.52
2023-05-21T15:58:58.770Z,26.46
2023-05-21T16:01:27.675Z,26.33
2023-05-21T16:03:55.541Z,26.31
2023-05-21T16:06:23.613Z,26.33
2023-05-21T16:08:51.306Z,26.38
2023-05-21T16:11:19.320Z,26.17
2023-05-21T16:13:48.406Z,26.10
2023-05-21T16:16:16.425Z,26.12
2023-05-21T16:18:44.344Z,25.87
2023-05-21T16:21:12.344Z,25.65
2023-05-21T16:23:40.360Z,25.68
2023-05-21T16:26:09.306Z,25.85
2023-05-21T16:28:37.831Z,26.01
2023-05-21T16:31:08.435Z,25.92
2023-05-21T16:33:36.256Z,25.96
2023-05-21T16:36:04.130Z,26.14
2023-05-21T16:38:32.179Z,25.79
2023-05-21T16:40:59.923Z,25.83
2023-05-21T16:43:27.667Z,25.97
2023-05-21T16:45:55.769Z,25.86
2023-05-21T16:48:24.947Z,26.27
2023-05-21T16:50:52.836Z,26.45
2023-05-21T16:53:20.515Z,26.64
2023-05-21T16:55:48.420Z,26.59
2023-05-21T16:58:16.052Z,26.94
2023-05-21T17:00:43.775Z,26.89
2023-05-21T17:03:12.156Z,26.77
2023-05-21T17:05:41.302Z,26.56
2023-05-21T17:08:09.994Z,26.51
2023-05-21T17:10:37.739Z,26.56
2023-05-21T17:13:17.387Z,26.27
2023-05-21T17:15:48.989Z,26.22
2023-05-21T17:18:16.871Z,25.95
2023-05-21T17:20:46.088Z,25.81
2023-05-21T17:23:14.310Z,25.42
2023-05-21T17:25:42.099Z,25.13
2023-05-21T17:28:09.878Z,24.79
2023-05-21T17:30:37.911Z,24.57
2023-05-21T17:33:06.490Z,24.20
2023-05-21T17:35:35.968Z,24.11
2023-05-21T17:38:05.212Z,23.88
2023-05-21T17:40:33.220Z,23.73
2023-05-21T17:43:01.018Z,23.70
2023-05-21T17:45:28.818Z,23.54
2023-05-21T17:47:59.678Z,23.37
2023-05-21T17:50:28.125Z,23.22
2023-05-21T17:52:56.139Z,23.04
2023-05-21T17:55:25.304Z,22.97
2023-05-21T17:57:53.025Z,22.81
2023-05-21T18:00:21.313Z,22.63
2023-05-21T18:02:49.404Z,22.48
2023-05-21T18:05:17.198Z,22.22
2023-05-21T18:07:45.168Z,22.13
2023-05-21T18:10:15.037Z,21.94
2023-05-21T18:12:46.484Z,21.87
2023-05-21T18:15:15.079Z,21.75
2023-05-21T18:17:43.078Z,21.54
2023-05-21T18:20:12.092Z,21.50
2023-05-21T18:22:39.956Z,21.40
2023-05-21T18:25:09.101Z,21.27
2023-05-21T18:27:36.809Z,21.13
2023-05-21T18:30:08.089Z,20.98
2023-05-21T18:32:38.365Z,20.90
2023-05-21T18:35:07.484Z,20.71
2023-05-21T18:37:35.189Z,20.57
2023-05-21T18:40:05.451Z,20.38
2023-05-21T18:42:33.728Z,20.22
2023-05-21T18:45:10.052Z,20.06
2023-05-21T18:47:39.303Z,19.90
2023-05-21T18:50:09.030Z,19.76
2023-05-21T18:52:37.014Z,19.62
2023-05-21T18:55:05.486Z,19.53
2023-05-21T18:57:34.887Z,19.43
2023-05-21T19:00:03.248Z,19.23
2023-05-21T19:02:32.417Z,19.05
2023-05-21T19:05:01.941Z,18.89
2023-05-21T19:07:30.235Z,18.71
2023-05-21T19:10:00.198Z,18.64
2023-05-21T19:12:29.300Z,18.51
2023-05-21T19:14:57.481Z,18.44
2023-05-21T19:17:25.256Z,18.36
2023-05-21T19:19:56.339Z,18.32
2023-05-21T19:22:24.781Z,18.31
2023-05-21T19:24:53.313Z,18.32
2023-05-21T19:27:21.379Z,18.31
2023-05-21T19:29:49.454Z,18.36
2023-05-21T19:32:18.038Z,18.41
2023-05-21T19:34:46.536Z,18.49
2023-05-21T19:37:15.636Z,18.56
2023-05-21T19:39:44.576Z,18.50
2023-05-21T19:42:12.251Z,18.57
2023-05-21T19:44:41.447Z,18.53
2023-05-21T19:47:09.392Z,18.47
2023-05-21T19:49:37.041Z,18.51
2023-05-21T19:52:06.441Z,18.39
2023-05-21T19:54:35.644Z,18.39
2023-05-21T19:57:03.661Z,18.38
2023-05-21T19:59:31.399Z,18.41
2023-05-21T20:01:59.382Z,18.41
2023-05-21T20:04:28.122Z,18.41
2023-05-21T20:06:56.236Z,18.43
2023-05-21T20:09:24.015Z,18.42
2023-05-21T20:11:53.100Z,18.39
2023-05-21T20:14:21.008Z,18.39
2023-05-21T20:16:49.381Z,18.35
2023-05-21T20:19:17.616Z,18.29
2023-05-21T20:21:45.346Z,18.29
2023-05-21T20:24:13.331Z,18.32
2023-05-21T20:26:41.135Z,18.27
2023-05-21T20:29:10.151Z,18.30
2023-05-21T20:31:38.632Z,18.27
2023-05-21T20:34:07.582Z,18.25
2023-05-21T20:36:36.153Z,18.16
2023-05-21T20:39:04.039Z,17.70
2023-05-21T20:41:36.042Z,17.98
2023-05-21T20:44:05.345Z,17.96
2023-05-21T20:46:39.214Z,17.99
2023-05-21T20:49:07.422Z,18.01
2023-05-21T20:51:35.254Z,17.97
2023-05-21T20:54:02.922Z,17.98
2023-05-21T20:56:41.552Z,18.00
2023-05-21T20:59:11.057Z,18.00
2023-05-21T21:01:40.766Z,18.02
2023-05-21T21:04:09.213Z,17.98
2023-05-21T21:06:38.375Z,18.01
2023-05-21T21:09:06.460Z,18.07
2023-05-21T21:11:34.299Z,18.02
2023-05-21T21:14:02.892Z,17.93
2023-05-21T21:16:30.642Z,17.99
2023-05-21T21:19:00.110Z,17.96
2023-05-21T21:21:28.692Z,17.85
2023-05-21T21:23:56.324Z,17.80
2023-05-21T21:26:24.577Z,17.79
2023-05-21T21:28:52.325Z,17.77
2023-05-21T21:31:20.237Z,17.73
2023-05-21T21:33:47.982Z,17.73
2023-05-21T21:36:17.085Z,17.68
2023-05-21T21:38:45.133Z,17.65
2023-05-21T21:41:13.150Z,17.63
2023-05-21T21:43:40.879Z,17.65
2023-05-21T21:46:08.660Z,17.58
2023-05-21T21:48:36.622Z,17.52
2023-05-21T21:51:04.653Z,17.45
2023-05-21T21:53:33.879Z,17.43
2023-05-21T21:56:01.626Z,17.25
2023-05-21T21:58:29.490Z,17.39
2023-05-21T22:00:57.787Z,17.37
2023-05-21T22:03:25.773Z,17.31
2023-05-21T22:05:55.091Z,17.28
2023-05-21T22:08:23.007Z,17.26
2023-05-21T22:10:52.415Z,17.20
2023-05-21T22:13:20.363Z,17.24
2023-05-21T22:15:49.006Z,17.26
2023-05-21T22:18:22.466Z,17.30
2023-05-21T22:20:56.090Z,17.29
2023-05-21T22:23:24.031Z,17.31
2023-05-21T22:25:53.028Z,17.32
2023-05-21T22:28:22.636Z,17.53
2023-05-21T22:30:50.411Z,17.43
2023-05-21T22:33:18.549Z,17.48
2023-05-21T22:35:46.468Z,17.31
2023-05-21T22:38:14.206Z,17.14
2023-05-21T22:40:41.914Z,16.91
2023-05-21T22:43:11.052Z,16.79
2023-05-21T22:45:39.368Z,16.62
2023-05-21T22:48:08.779Z,16.50
2023-05-21T22:50:38.283Z,16.33
2023-05-21T22:53:06.976Z,16.18
2023-05-21T22:55:34.797Z,16.07
2023-05-21T22:58:03.556Z,15.94
2023-05-21T23:00:32.647Z,15.80
2023-05-21T23:03:00.816Z,15.72
2023-05-21T23:05:28.509Z,15.75
2023-05-21T23:07:56.563Z,15.73
2023-05-21T23:10:24.314Z,15.61
2023-05-21T23:12:52.399Z,15.50
2023-05-21T23:15:20.237Z,15.47
2023-05-21T23:17:49.685Z,15.56
2023-05-21T23:20:17.687Z,15.57
2023-05-21T23:22:45.429Z,15.59
2023-05-21T23:25:13.340Z,15.63
2023-05-21T23:27:41.058Z,15.66
2023-05-21T23:30:10.803Z,15.62
2023-05-21T23:32:38.739Z,15.48
2023-05-21T23:35:09.506Z,15.41
2023-05-21T23:37:37.398Z,15.32
2023-05-21T23:40:06.881Z,15.27
2023-05-21T23:42:34.672Z,15.16
2023-05-21T23:45:02.689Z,15.07
2023-05-21T23:47:30.414Z,15.01
2023-05-21T23:49:58.348Z,14.96
2023-05-21T23:52:27.675Z,14.87
2023-05-21T23:54:55.679Z,14.82
2023-05-21T23:57:23.390Z,14.77
2023-05-21T23:59:51.493Z,14.75
